Terminal Aerodrome Forecast
Issued by NWS

Home | Current Version | Previous Version | Text Only | Print | Product List | Glossary On
Versions: 1 2 3 4 5 6 7 8 9 10 11 12 13 14 15 16 17 18 19 20 21 22 23 24 25 26 27
515
FTUS43 KDLH 230318 AAA
TAFHIB
TAF AMD
KHIB 230318Z 2303/2324 14004KT P6SM VCSH BKN023 BKN030
     FM230500 00000KT 1SM -SN OVC030
     FM230600 00000KT 1/2SM SN OVC025
     FM230900 00000KT 3/4SM -SN OVC010
     FM231300 00000KT P6SM VCSH OVC008
     FM231600 31007KT P6SM BKN035=

USA.gov is the U.S. government's official web portal to all federal, state and local government web resources and services.